sensor_id;sensor_type;location;lat;lon;timestamp;temperature;humidity
75022;SHT31;63583;49.976;20.182;2024-03-06T00:02:10;3.21;97.79
75022;SHT31;63583;49.976;20.182;2024-03-06T00:04:37;3.21;97.67
75022;SHT31;63583;49.976;20.182;2024-03-06T00:07:03;3.10;97.53
75022;SHT31;63583;49.976;20.182;2024-03-06T00:09:29;3.14;97.63
75022;SHT31;63583;49.976;20.182;2024-03-06T00:11:55;3.08;97.52
75022;SHT31;63583;49.976;20.182;2024-03-06T00:14:22;3.03;97.76
75022;SHT31;63583;49.976;20.182;2024-03-06T00:16:51;2.96;97.90
75022;SHT31;63583;49.976;20.182;2024-03-06T00:19:17;2.87;97.96
75022;SHT31;63583;49.976;20.182;2024-03-06T00:21:43;2.80;98.09
75022;SHT31;63583;49.976;20.182;2024-03-06T00:24:11;2.73;98.20
75022;SHT31;63583;49.976;20.182;2024-03-06T00:26:40;2.63;98.22
75022;SHT31;63583;49.976;20.182;2024-03-06T00:29:06;2.59;98.35
75022;SHT31;63583;49.976;20.182;2024-03-06T00:31:32;2.56;98.57
75022;SHT31;63583;49.976;20.182;2024-03-06T00:33:58;2.53;98.66
75022;SHT31;63583;49.976;20.182;2024-03-06T00:36:23;2.49;98.66
75022;SHT31;63583;49.976;20.182;2024-03-06T00:38:49;2.48;98.57
75022;SHT31;63583;49.976;20.182;2024-03-06T00:41:15;2.42;98.50
75022;SHT31;63583;49.976;20.182;2024-03-06T00:43:41;2.35;98.47
75022;SHT31;63583;49.976;20.182;2024-03-06T00:46:06;2.32;98.43
75022;SHT31;63583;49.976;20.182;2024-03-06T00:48:32;2.32;98.44
75022;SHT31;63583;49.976;20.182;2024-03-06T00:50:58;2.27;98.35
75022;SHT31;63583;49.976;20.182;2024-03-06T00:53:24;2.29;98.63
75022;SHT31;63583;49.976;20.182;2024-03-06T00:55:50;2.32;98.79
75022;SHT31;63583;49.976;20.182;2024-03-06T00:58:16;2.28;98.78
75022;SHT31;63583;49.976;20.182;2024-03-06T01:00:41;2.28;98.79
75022;SHT31;63583;49.976;20.182;2024-03-06T01:03:07;2.35;98.87
75022;SHT31;63583;49.976;20.182;2024-03-06T01:05:33;2.46;98.78
75022;SHT31;63583;49.976;20.182;2024-03-06T01:07:59;2.52;98.62
75022;SHT31;63583;49.976;20.182;2024-03-06T01:10:25;2.48;98.55
75022;SHT31;63583;49.976;20.182;2024-03-06T01:12:51;2.39;98.63
75022;SHT31;63583;49.976;20.182;2024-03-06T01:15:16;2.38;98.78
75022;SHT31;63583;49.976;20.182;2024-03-06T01:17:42;2.38;98.80
75022;SHT31;63583;49.976;20.182;2024-03-06T01:20:08;2.34;98.84
75022;SHT31;63583;49.976;20.182;2024-03-06T01:22:35;2.44;98.90
75022;SHT31;63583;49.976;20.182;2024-03-06T01:25:00;2.35;98.77
75022;SHT31;63583;49.976;20.182;2024-03-06T01:27:27;2.31;98.81
75022;SHT31;63583;49.976;20.182;2024-03-06T01:29:53;2.25;98.91
75022;SHT31;63583;49.976;20.182;2024-03-06T01:32:19;2.21;98.74
75022;SHT31;63583;49.976;20.182;2024-03-06T01:34:44;2.13;98.67
75022;SHT31;63583;49.976;20.182;2024-03-06T01:37:10;2.10;98.77
75022;SHT31;63583;49.976;20.182;2024-03-06T01:39:36;2.13;98.93
75022;SHT31;63583;49.976;20.182;2024-03-06T01:42:02;2.10;98.98
75022;SHT31;63583;49.976;20.182;2024-03-06T01:44:28;2.11;99.01
75022;SHT31;63583;49.976;20.182;2024-03-06T01:46:55;2.07;98.89
75022;SHT31;63583;49.976;20.182;2024-03-06T01:49:21;2.06;98.99
75022;SHT31;63583;49.976;20.182;2024-03-06T01:51:55;2.06;99.13
75022;SHT31;63583;49.976;20.182;2024-03-06T01:54:22;2.06;99.30
75022;SHT31;63583;49.976;20.182;2024-03-06T01:56:49;2.04;99.31
75022;SHT31;63583;49.976;20.182;2024-03-06T01:59:16;2.08;99.50
75022;SHT31;63583;49.976;20.182;2024-03-06T02:01:44;2.14;99.43
75022;SHT31;63583;49.976;20.182;2024-03-06T02:04:11;2.11;99.44
75022;SHT31;63583;49.976;20.182;2024-03-06T02:06:41;2.15;99.82
75022;SHT31;63583;49.976;20.182;2024-03-06T02:09:08;2.20;99.81
75022;SHT31;63583;49.976;20.182;2024-03-06T02:11:36;2.27;99.70
75022;SHT31;63583;49.976;20.182;2024-03-06T02:14:02;2.28;99.54
75022;SHT31;63583;49.976;20.182;2024-03-06T02:16:29;2.27;99.48
75022;SHT31;63583;49.976;20.182;2024-03-06T02:18:56;2.29;99.38
75022;SHT31;63583;49.976;20.182;2024-03-06T02:21:24;2.21;99.30
75022;SHT31;63583;49.976;20.182;2024-03-06T02:23:50;2.22;99.42
75022;SHT31;63583;49.976;20.182;2024-03-06T02:26:20;2.17;99.26
75022;SHT31;63583;49.976;20.182;2024-03-06T02:28:50;2.24;99.31
75022;SHT31;63583;49.976;20.182;2024-03-06T02:31:17;2.27;99.27
75022;SHT31;63583;49.976;20.182;2024-03-06T02:33:44;2.31;98.68
75022;SHT31;63583;49.976;20.182;2024-03-06T02:36:19;2.35;98.30
75022;SHT31;63583;49.976;20.182;2024-03-06T02:38:45;2.11;98.19
75022;SHT31;63583;49.976;20.182;2024-03-06T02:41:11;2.15;98.41
75022;SHT31;63583;49.976;20.182;2024-03-06T02:43:39;2.01;98.10
75022;SHT31;63583;49.976;20.182;2024-03-06T02:46:05;1.81;98.21
75022;SHT31;63583;49.976;20.182;2024-03-06T02:48:31;1.73;98.44
75022;SHT31;63583;49.976;20.182;2024-03-06T02:50:57;1.55;98.09
75022;SHT31;63583;49.976;20.182;2024-03-06T02:53:23;1.31;98.44
75022;SHT31;63583;49.976;20.182;2024-03-06T02:55:51;1.36;98.99
75022;SHT31;63583;49.976;20.182;2024-03-06T02:58:16;1.22;98.68
75022;SHT31;63583;49.976;20.182;2024-03-06T03:00:43;1.20;99.04
75022;SHT31;63583;49.976;20.182;2024-03-06T03:03:09;1.03;98.98
75022;SHT31;63583;49.976;20.182;2024-03-06T03:05:38;1.01;99.28
75022;SHT31;63583;49.976;20.182;2024-03-06T03:08:05;1.01;99.49
75022;SHT31;63583;49.976;20.182;2024-03-06T03:10:31;0.91;99.44
75022;SHT31;63583;49.976;20.182;2024-03-06T03:12:57;0.94;99.48
75022;SHT31;63583;49.976;20.182;2024-03-06T03:15:23;0.88;99.29
75022;SHT31;63583;49.976;20.182;2024-03-06T03:17:48;0.83;99.27
75022;SHT31;63583;49.976;20.182;2024-03-06T03:20:14;0.81;99.30
75022;SHT31;63583;49.976;20.182;2024-03-06T03:22:42;0.74;99.15
75022;SHT31;63583;49.976;20.182;2024-03-06T03:25:10;0.60;99.13
75022;SHT31;63583;49.976;20.182;2024-03-06T03:27:37;0.43;99.04
75022;SHT31;63583;49.976;20.182;2024-03-06T03:30:08;0.36;99.10
75022;SHT31;63583;49.976;20.182;2024-03-06T03:32:34;0.38;99.49
75022;SHT31;63583;49.976;20.182;2024-03-06T03:35:00;0.36;99.74
75022;SHT31;63583;49.976;20.182;2024-03-06T03:37:26;0.45;99.68
75022;SHT31;63583;49.976;20.182;2024-03-06T03:39:52;0.28;99.38
75022;SHT31;63583;49.976;20.182;2024-03-06T03:42:18;0.29;99.68
75022;SHT31;63583;49.976;20.182;2024-03-06T03:44:44;0.30;99.64
75022;SHT31;63583;49.976;20.182;2024-03-06T03:47:10;0.26;99.68
75022;SHT31;63583;49.976;20.182;2024-03-06T03:49:38;0.18;99.68
75022;SHT31;63583;49.976;20.182;2024-03-06T03:52:03;0.19;99.56
75022;SHT31;63583;49.976;20.182;2024-03-06T03:54:29;0.21;99.69
75022;SHT31;63583;49.976;20.182;2024-03-06T03:56:55;0.16;99.51
75022;SHT31;63583;49.976;20.182;2024-03-06T03:59:21;0.15;99.70
75022;SHT31;63583;49.976;20.182;2024-03-06T04:01:47;0.12;99.61
75022;SHT31;63583;49.976;20.182;2024-03-06T04:04:13;0.16;99.70
75022;SHT31;63583;49.976;20.182;2024-03-06T04:06:39;0.07;99.54
75022;SHT31;63583;49.976;20.182;2024-03-06T04:09:04;0.09;99.63
75022;SHT31;63583;49.976;20.182;2024-03-06T04:11:30;-0.17;99.78
75022;SHT31;63583;49.976;20.182;2024-03-06T04:13:59;-0.05;99.99
75022;SHT31;63583;49.976;20.182;2024-03-06T04:16:25;-0.12;99.99
75022;SHT31;63583;49.976;20.182;2024-03-06T04:18:51;-0.01;99.99
75022;SHT31;63583;49.976;20.182;2024-03-06T04:21:17;0.08;99.99
75022;SHT31;63583;49.976;20.182;2024-03-06T04:23:43;0.15;99.99
75022;SHT31;63583;49.976;20.182;2024-03-06T04:26:09;0.09;99.99
75022;SHT31;63583;49.976;20.182;2024-03-06T04:28:36;0.09;99.99
75022;SHT31;63583;49.976;20.182;2024-03-06T04:31:01;0.07;99.99
75022;SHT31;63583;49.976;20.182;2024-03-06T04:33:27;0.15;99.99
75022;SHT31;63583;49.976;20.182;2024-03-06T04:35:53;0.22;99.99
75022;SHT31;63583;49.976;20.182;2024-03-06T04:38:19;0.39;99.99
75022;SHT31;63583;49.976;20.182;2024-03-06T04:40:44;0.39;99.99
75022;SHT31;63583;49.976;20.182;2024-03-06T04:43:10;0.42;99.99
75022;SHT31;63583;49.976;20.182;2024-03-06T04:45:36;0.42;99.99
75022;SHT31;63583;49.976;20.182;2024-03-06T04:48:02;0.45;99.99
75022;SHT31;63583;49.976;20.182;2024-03-06T04:50:28;0.55;99.99
75022;SHT31;63583;49.976;20.182;2024-03-06T04:52:54;0.64;99.99
75022;SHT31;63583;49.976;20.182;2024-03-06T04:55:21;0.55;99.99
75022;SHT31;63583;49.976;20.182;2024-03-06T04:57:48;0.64;99.99
75022;SHT31;63583;49.976;20.182;2024-03-06T05:00:14;0.73;99.99
75022;SHT31;63583;49.976;20.182;2024-03-06T05:02:41;0.74;99.99
75022;SHT31;63583;49.976;20.182;2024-03-06T05:05:08;0.80;99.99
75022;SHT31;63583;49.976;20.182;2024-03-06T05:07:34;0.79;99.99
75022;SHT31;63583;49.976;20.182;2024-03-06T05:10:00;0.73;99.99
75022;SHT31;63583;49.976;20.182;2024-03-06T05:12:27;0.76;99.99
75022;SHT31;63583;49.976;20.182;2024-03-06T05:14:53;0.74;99.99
75022;SHT31;63583;49.976;20.182;2024-03-06T05:17:20;0.77;99.99
75022;SHT31;63583;49.976;20.182;2024-03-06T05:19:46;0.76;99.99
75022;SHT31;63583;49.976;20.182;2024-03-06T05:22:13;0.80;99.99
75022;SHT31;63583;49.976;20.182;2024-03-06T05:24:40;0.87;99.99
75022;SHT31;63583;49.976;20.182;2024-03-06T05:27:06;1.05;99.99
75022;SHT31;63583;49.976;20.182;2024-03-06T05:29:32;0.93;99.99
75022;SHT31;63583;49.976;20.182;2024-03-06T05:31:58;0.91;99.99
75022;SHT31;63583;49.976;20.182;2024-03-06T05:34:24;1.01;99.99
75022;SHT31;63583;49.976;20.182;2024-03-06T05:36:50;0.97;99.99
75022;SHT31;63583;49.976;20.182;2024-03-06T05:39:16;1.03;99.99
75022;SHT31;63583;49.976;20.182;2024-03-06T05:41:43;1.12;99.99
75022;SHT31;63583;49.976;20.182;2024-03-06T05:44:09;1.15;99.99
75022;SHT31;63583;49.976;20.182;2024-03-06T05:46:36;1.07;99.84
75022;SHT31;63583;49.976;20.182;2024-03-06T05:49:02;1.12;99.99
75022;SHT31;63583;49.976;20.182;2024-03-06T05:51:28;1.14;99.99
75022;SHT31;63583;49.976;20.182;2024-03-06T05:53:54;1.18;99.99
75022;SHT31;63583;49.976;20.182;2024-03-06T05:56:20;1.18;99.81
75022;SHT31;63583;49.976;20.182;2024-03-06T05:58:46;1.18;99.71
75022;SHT31;63583;49.976;20.182;2024-03-06T06:01:16;1.09;99.37
75022;SHT31;63583;49.976;20.182;2024-03-06T06:03:46;1.20;99.65
75022;SHT31;63583;49.976;20.182;2024-03-06T06:06:17;1.17;99.50
75022;SHT31;63583;49.976;20.182;2024-03-06T06:08:46;1.15;99.55
75022;SHT31;63583;49.976;20.182;2024-03-06T06:11:12;1.15;99.58
75022;SHT31;63583;49.976;20.182;2024-03-06T06:13:38;1.27;99.87
75022;SHT31;63583;49.976;20.182;2024-03-06T06:16:05;1.31;99.70
75022;SHT31;63583;49.976;20.182;2024-03-06T06:18:31;1.24;99.52
75022;SHT31;63583;49.976;20.182;2024-03-06T06:20:58;1.25;99.52
75022;SHT31;63583;49.976;20.182;2024-03-06T06:23:24;1.34;99.67
75022;SHT31;63583;49.976;20.182;2024-03-06T06:25:50;1.31;99.56
75022;SHT31;63583;49.976;20.182;2024-03-06T06:28:16;1.35;99.62
75022;SHT31;63583;49.976;20.182;2024-03-06T06:30:42;1.42;99.71
75022;SHT31;63583;49.976;20.182;2024-03-06T06:33:08;1.35;99.30
75022;SHT31;63583;49.976;20.182;2024-03-06T06:35:34;1.39;99.69
75022;SHT31;63583;49.976;20.182;2024-03-06T06:38:01;1.38;99.47
75022;SHT31;63583;49.976;20.182;2024-03-06T06:40:27;1.35;99.32
75022;SHT31;63583;49.976;20.182;2024-03-06T06:42:56;1.38;99.34
75022;SHT31;63583;49.976;20.182;2024-03-06T06:45:22;1.51;99.40
75022;SHT31;63583;49.976;20.182;2024-03-06T06:47:49;1.56;99.23
75022;SHT31;63583;49.976;20.182;2024-03-06T06:50:15;1.51;99.03
75022;SHT31;63583;49.976;20.182;2024-03-06T06:52:42;1.53;99.05
75022;SHT31;63583;49.976;20.182;2024-03-06T06:55:08;1.56;99.10
75022;SHT31;63583;49.976;20.182;2024-03-06T06:57:37;1.49;98.94
75022;SHT31;63583;49.976;20.182;2024-03-06T07:00:04;1.55;98.72
75022;SHT31;63583;49.976;20.182;2024-03-06T07:02:37;1.76;98.78
75022;SHT31;63583;49.976;20.182;2024-03-06T07:05:05;1.70;98.39
75022;SHT31;63583;49.976;20.182;2024-03-06T07:07:31;1.77;98.71
75022;SHT31;63583;49.976;20.182;2024-03-06T07:09:57;1.81;98.71
75022;SHT31;63583;49.976;20.182;2024-03-06T07:12:24;1.93;98.35
75022;SHT31;63583;49.976;20.182;2024-03-06T07:14:49;1.87;97.89
75022;SHT31;63583;49.976;20.182;2024-03-06T07:17:15;1.89;97.74
75022;SHT31;63583;49.976;20.182;2024-03-06T07:19:41;1.87;97.62
75022;SHT31;63583;49.976;20.182;2024-03-06T07:22:07;2.00;97.66
75022;SHT31;63583;49.976;20.182;2024-03-06T07:24:32;1.98;97.38
75022;SHT31;63583;49.976;20.182;2024-03-06T07:26:59;2.06;97.60
75022;SHT31;63583;49.976;20.182;2024-03-06T07:29:27;2.01;97.08
75022;SHT31;63583;49.976;20.182;2024-03-06T07:31:53;2.20;96.66
75022;SHT31;63583;49.976;20.182;2024-03-06T07:34:22;2.35;96.39
75022;SHT31;63583;49.976;20.182;2024-03-06T07:36:48;2.31;95.79
75022;SHT31;63583;49.976;20.182;2024-03-06T07:39:19;2.31;96.15
75022;SHT31;63583;49.976;20.182;2024-03-06T07:41:45;2.49;95.92
75022;SHT31;63583;49.976;20.182;2024-03-06T07:44:11;2.50;95.34
75022;SHT31;63583;49.976;20.182;2024-03-06T07:46:37;2.44;95.86
75022;SHT31;63583;49.976;20.182;2024-03-06T07:49:03;2.53;95.75
75022;SHT31;63583;49.976;20.182;2024-03-06T07:51:29;2.59;95.91
75022;SHT31;63583;49.976;20.182;2024-03-06T07:53:57;2.67;95.37
75022;SHT31;63583;49.976;20.182;2024-03-06T07:56:26;2.72;95.23
75022;SHT31;63583;49.976;20.182;2024-03-06T07:58:53;2.65;94.96
75022;SHT31;63583;49.976;20.182;2024-03-06T08:01:22;2.62;95.25
75022;SHT31;63583;49.976;20.182;2024-03-06T08:03:49;2.67;94.21
75022;SHT31;63583;49.976;20.182;2024-03-06T08:06:15;2.62;94.39
75022;SHT31;63583;49.976;20.182;2024-03-06T08:08:44;2.49;94.54
75022;SHT31;63583;49.976;20.182;2024-03-06T08:11:11;2.55;94.38
75022;SHT31;63583;49.976;20.182;2024-03-06T08:13:40;2.49;94.63
75022;SHT31;63583;49.976;20.182;2024-03-06T08:16:09;2.44;95.22
75022;SHT31;63583;49.976;20.182;2024-03-06T08:18:36;2.49;94.66
75022;SHT31;63583;49.976;20.182;2024-03-06T08:21:02;2.50;95.26
75022;SHT31;63583;49.976;20.182;2024-03-06T08:23:33;2.44;95.19
75022;SHT31;63583;49.976;20.182;2024-03-06T08:26:13;2.55;95.15
75022;SHT31;63583;49.976;20.182;2024-03-06T08:28:40;2.48;95.12
75022;SHT31;63583;49.976;20.182;2024-03-06T08:31:06;2.50;95.09
75022;SHT31;63583;49.976;20.182;2024-03-06T08:33:34;2.39;95.36
75022;SHT31;63583;49.976;20.182;2024-03-06T08:36:01;2.49;95.11
75022;SHT31;63583;49.976;20.182;2024-03-06T08:38:27;2.44;95.78
75022;SHT31;63583;49.976;20.182;2024-03-06T08:40:55;2.49;95.23
75022;SHT31;63583;49.976;20.182;2024-03-06T08:43:21;2.42;95.32
75022;SHT31;63583;49.976;20.182;2024-03-06T08:45:49;2.46;95.77
75022;SHT31;63583;49.976;20.182;2024-03-06T08:48:17;2.34;95.94
75022;SHT31;63583;49.976;20.182;2024-03-06T08:50:45;2.42;96.29
75022;SHT31;63583;49.976;20.182;2024-03-06T08:53:12;2.46;95.75
75022;SHT31;63583;49.976;20.182;2024-03-06T08:55:42;2.50;96.05
75022;SHT31;63583;49.976;20.182;2024-03-06T08:58:08;2.62;95.78
75022;SHT31;63583;49.976;20.182;2024-03-06T09:00:34;2.69;95.86
75022;SHT31;63583;49.976;20.182;2024-03-06T09:03:01;2.59;96.08
75022;SHT31;63583;49.976;20.182;2024-03-06T09:05:28;2.60;95.96
75022;SHT31;63583;49.976;20.182;2024-03-06T09:07:54;2.69;95.49
75022;SHT31;63583;49.976;20.182;2024-03-06T09:10:23;2.77;95.70
75022;SHT31;63583;49.976;20.182;2024-03-06T09:12:49;2.60;95.90
75022;SHT31;63583;49.976;20.182;2024-03-06T09:15:15;2.83;95.38
75022;SHT31;63583;49.976;20.182;2024-03-06T09:17:41;2.82;95.26
75022;SHT31;63583;49.976;20.182;2024-03-06T09:20:08;2.77;95.26
75022;SHT31;63583;49.976;20.182;2024-03-06T09:22:37;2.80;95.40
75022;SHT31;63583;49.976;20.182;2024-03-06T09:25:04;2.76;94.87
75022;SHT31;63583;49.976;20.182;2024-03-06T09:27:30;2.89;94.80
75022;SHT31;63583;49.976;20.182;2024-03-06T09:29:56;2.89;94.60
75022;SHT31;63583;49.976;20.182;2024-03-06T09:32:21;2.89;95.05
75022;SHT31;63583;49.976;20.182;2024-03-06T09:34:49;2.93;95.10
75022;SHT31;63583;49.976;20.182;2024-03-06T09:37:15;2.89;95.37
75022;SHT31;63583;49.976;20.182;2024-03-06T09:39:41;2.89;95.24
75022;SHT31;63583;49.976;20.182;2024-03-06T09:42:07;2.86;96.02
75022;SHT31;63583;49.976;20.182;2024-03-06T09:44:33;2.87;96.13
75022;SHT31;63583;49.976;20.182;2024-03-06T09:47:02;2.87;94.93
75022;SHT31;63583;49.976;20.182;2024-03-06T09:49:29;2.86;94.92
75022;SHT31;63583;49.976;20.182;2024-03-06T09:51:56;2.87;95.46
75022;SHT31;63583;49.976;20.182;2024-03-06T09:54:25;2.94;95.81
75022;SHT31;63583;49.976;20.182;2024-03-06T09:56:52;3.04;95.53
75022;SHT31;63583;49.976;20.182;2024-03-06T09:59:18;3.07;95.17
75022;SHT31;63583;49.976;20.182;2024-03-06T10:01:50;3.17;95.57
75022;SHT31;63583;49.976;20.182;2024-03-06T10:04:25;3.08;94.86
75022;SHT31;63583;49.976;20.182;2024-03-06T10:07:00;3.08;95.23
75022;SHT31;63583;49.976;20.182;2024-03-06T10:09:28;3.20;95.00
75022;SHT31;63583;49.976;20.182;2024-03-06T10:11:55;3.18;94.85
75022;SHT31;63583;49.976;20.182;2024-03-06T10:14:22;3.21;94.83
75022;SHT31;63583;49.976;20.182;2024-03-06T10:17:01;3.17;94.29
75022;SHT31;63583;49.976;20.182;2024-03-06T10:19:29;3.23;94.48
75022;SHT31;63583;49.976;20.182;2024-03-06T10:21:56;3.14;95.41
75022;SHT31;63583;49.976;20.182;2024-03-06T10:24:24;3.17;94.65
75022;SHT31;63583;49.976;20.182;2024-03-06T10:26:51;3.14;94.58
75022;SHT31;63583;49.976;20.182;2024-03-06T10:29:21;3.15;95.05
75022;SHT31;63583;49.976;20.182;2024-03-06T10:31:58;3.21;94.47
75022;SHT31;63583;49.976;20.182;2024-03-06T10:34:26;3.23;94.47
75022;SHT31;63583;49.976;20.182;2024-03-06T10:36:56;3.27;94.70
75022;SHT31;63583;49.976;20.182;2024-03-06T10:39:23;3.25;95.03
75022;SHT31;63583;49.976;20.182;2024-03-06T10:41:56;3.17;95.17
75022;SHT31;63583;49.976;20.182;2024-03-06T10:44:26;3.21;95.68
75022;SHT31;63583;49.976;20.182;2024-03-06T10:46:58;3.30;94.76
75022;SHT31;63583;49.976;20.182;2024-03-06T10:49:26;3.27;94.69
75022;SHT31;63583;49.976;20.182;2024-03-06T10:52:03;3.35;94.36
75022;SHT31;63583;49.976;20.182;2024-03-06T10:54:33;3.45;94.14
75022;SHT31;63583;49.976;20.182;2024-03-06T10:57:04;3.31;93.68
75022;SHT31;63583;49.976;20.182;2024-03-06T10:59:31;3.32;94.65
75022;SHT31;63583;49.976;20.182;2024-03-06T11:01:57;3.39;94.77
75022;SHT31;63583;49.976;20.182;2024-03-06T11:04:27;3.41;94.83
75022;SHT31;63583;49.976;20.182;2024-03-06T11:07:00;3.42;94.69
75022;SHT31;63583;49.976;20.182;2024-03-06T11:09:27;3.39;95.22
75022;SHT31;63583;49.976;20.182;2024-03-06T11:11:54;3.45;94.89
75022;SHT31;63583;49.976;20.182;2024-03-06T11:14:22;3.55;93.91
75022;SHT31;63583;49.976;20.182;2024-03-06T11:17:08;3.51;94.93
75022;SHT31;63583;49.976;20.182;2024-03-06T11:28:20;3.48;95.00
75022;SHT31;63583;49.976;20.182;2024-03-06T11:33:41;3.45;94.52
75022;SHT31;63583;49.976;20.182;2024-03-06T11:36:25;3.55;94.36
75022;SHT31;63583;49.976;20.182;2024-03-06T11:39:02;3.52;94.04
75022;SHT31;63583;49.976;20.182;2024-03-06T11:41:30;3.45;94.61
75022;SHT31;63583;49.976;20.182;2024-03-06T11:43:59;3.44;94.69
75022;SHT31;63583;49.976;20.182;2024-03-06T11:46:45;3.46;94.87
75022;SHT31;63583;49.976;20.182;2024-03-06T11:49:18;3.46;94.85
75022;SHT31;63583;49.976;20.182;2024-03-06T11:51:46;3.56;94.04
75022;SHT31;63583;49.976;20.182;2024-03-06T11:54:13;3.58;94.49
75022;SHT31;63583;49.976;20.182;2024-03-06T11:56:44;3.58;94.63
75022;SHT31;63583;49.976;20.182;2024-03-06T11:59:10;3.51;95.24
75022;SHT31;63583;49.976;20.182;2024-03-06T12:01:37;3.36;95.52
75022;SHT31;63583;49.976;20.182;2024-03-06T12:04:03;3.46;95.39
75022;SHT31;63583;49.976;20.182;2024-03-06T12:06:35;3.55;95.05
75022;SHT31;63583;49.976;20.182;2024-03-06T12:09:01;3.51;95.03
75022;SHT31;63583;49.976;20.182;2024-03-06T12:11:27;3.58;95.02
75022;SHT31;63583;49.976;20.182;2024-03-06T12:13:55;3.48;95.31
75022;SHT31;63583;49.976;20.182;2024-03-06T12:16:21;3.50;95.43
75022;SHT31;63583;49.976;20.182;2024-03-06T12:18:57;3.36;95.83
75022;SHT31;63583;49.976;20.182;2024-03-06T12:21:31;3.44;96.71
75022;SHT31;63583;49.976;20.182;2024-03-06T12:24:05;3.48;96.78
75022;SHT31;63583;49.976;20.182;2024-03-06T12:26:31;3.48;96.42
75022;SHT31;63583;49.976;20.182;2024-03-06T12:29:07;3.59;96.52
75022;SHT31;63583;49.976;20.182;2024-03-06T12:31:41;3.66;95.81
75022;SHT31;63583;49.976;20.182;2024-03-06T12:34:08;3.69;95.61
75022;SHT31;63583;49.976;20.182;2024-03-06T12:36:35;3.65;95.80
75022;SHT31;63583;49.976;20.182;2024-03-06T12:39:06;3.58;96.18
75022;SHT31;63583;49.976;20.182;2024-03-06T12:41:41;3.65;96.06
75022;SHT31;63583;49.976;20.182;2024-03-06T12:44:08;3.61;96.43
75022;SHT31;63583;49.976;20.182;2024-03-06T12:46:34;3.63;96.61
75022;SHT31;63583;49.976;20.182;2024-03-06T12:49:00;3.59;97.09
75022;SHT31;63583;49.976;20.182;2024-03-06T12:51:26;3.50;96.65
75022;SHT31;63583;49.976;20.182;2024-03-06T12:53:53;3.44;97.28
75022;SHT31;63583;49.976;20.182;2024-03-06T12:56:19;3.42;97.11
75022;SHT31;63583;49.976;20.182;2024-03-06T12:58:46;3.50;97.26
75022;SHT31;63583;49.976;20.182;2024-03-06T13:01:12;3.48;97.16
75022;SHT31;63583;49.976;20.182;2024-03-06T13:03:40;3.45;97.11
75022;SHT31;63583;49.976;20.182;2024-03-06T13:06:07;3.45;97.43
75022;SHT31;63583;49.976;20.182;2024-03-06T13:08:32;3.38;97.45
75022;SHT31;63583;49.976;20.182;2024-03-06T13:10:58;3.39;97.36
75022;SHT31;63583;49.976;20.182;2024-03-06T13:13:25;3.46;96.96
75022;SHT31;63583;49.976;20.182;2024-03-06T13:15:54;3.50;97.20
75022;SHT31;63583;49.976;20.182;2024-03-06T13:18:21;3.51;97.23
75022;SHT31;63583;49.976;20.182;2024-03-06T13:20:48;3.44;96.95
75022;SHT31;63583;49.976;20.182;2024-03-06T13:23:16;3.48;97.34
75022;SHT31;63583;49.976;20.182;2024-03-06T13:25:42;3.41;97.47
75022;SHT31;63583;49.976;20.182;2024-03-06T13:28:09;3.44;97.14
75022;SHT31;63583;49.976;20.182;2024-03-06T13:30:34;3.39;97.42
75022;SHT31;63583;49.976;20.182;2024-03-06T13:33:01;3.54;97.35
75022;SHT31;63583;49.976;20.182;2024-03-06T13:35:26;3.42;97.12
75022;SHT31;63583;49.976;20.182;2024-03-06T13:37:52;3.44;97.52
75022;SHT31;63583;49.976;20.182;2024-03-06T13:40:19;3.46;97.43
75022;SHT31;63583;49.976;20.182;2024-03-06T13:42:45;3.50;96.86
75022;SHT31;63583;49.976;20.182;2024-03-06T13:45:11;3.48;97.60
75022;SHT31;63583;49.976;20.182;2024-03-06T13:47:38;3.44;97.39
75022;SHT31;63583;49.976;20.182;2024-03-06T13:50:11;3.42;97.21
75022;SHT31;63583;49.976;20.182;2024-03-06T13:52:37;3.39;96.91
75022;SHT31;63583;49.976;20.182;2024-03-06T13:55:03;3.42;97.20
75022;SHT31;63583;49.976;20.182;2024-03-06T13:57:32;3.36;96.85
75022;SHT31;63583;49.976;20.182;2024-03-06T14:00:03;3.44;96.94
75022;SHT31;63583;49.976;20.182;2024-03-06T14:02:32;3.44;96.86
75022;SHT31;63583;49.976;20.182;2024-03-06T14:04:58;3.38;97.03
75022;SHT31;63583;49.976;20.182;2024-03-06T14:07:24;3.39;97.21
75022;SHT31;63583;49.976;20.182;2024-03-06T14:09:50;3.32;97.22
75022;SHT31;63583;49.976;20.182;2024-03-06T14:12:16;3.32;97.58
75022;SHT31;63583;49.976;20.182;2024-03-06T14:14:42;3.31;97.52
75022;SHT31;63583;49.976;20.182;2024-03-06T14:17:08;3.39;97.42
75022;SHT31;63583;49.976;20.182;2024-03-06T14:19:34;3.50;97.29
75022;SHT31;63583;49.976;20.182;2024-03-06T14:21:59;3.32;97.01
75022;SHT31;63583;49.976;20.182;2024-03-06T14:24:25;3.28;97.30
75022;SHT31;63583;49.976;20.182;2024-03-06T14:26:51;3.32;97.48
75022;SHT31;63583;49.976;20.182;2024-03-06T14:29:17;3.34;97.38
75022;SHT31;63583;49.976;20.182;2024-03-06T14:31:43;3.32;97.36
75022;SHT31;63583;49.976;20.182;2024-03-06T14:34:08;3.35;97.53
75022;SHT31;63583;49.976;20.182;2024-03-06T14:36:35;3.35;97.81
75022;SHT31;63583;49.976;20.182;2024-03-06T14:39:02;3.35;97.91
75022;SHT31;63583;49.976;20.182;2024-03-06T14:41:28;3.39;97.86
75022;SHT31;63583;49.976;20.182;2024-03-06T14:43:54;3.36;97.80
75022;SHT31;63583;49.976;20.182;2024-03-06T14:46:19;3.28;97.63
75022;SHT31;63583;49.976;20.182;2024-03-06T14:48:45;3.38;97.70
75022;SHT31;63583;49.976;20.182;2024-03-06T14:51:11;3.46;97.66
75022;SHT31;63583;49.976;20.182;2024-03-06T14:53:37;3.32;97.45
75022;SHT31;63583;49.976;20.182;2024-03-06T14:56:04;3.30;97.71
75022;SHT31;63583;49.976;20.182;2024-03-06T14:58:29;3.31;97.70
75022;SHT31;63583;49.976;20.182;2024-03-06T15:00:55;3.32;97.85
75022;SHT31;63583;49.976;20.182;2024-03-06T15:03:21;3.36;97.80
75022;SHT31;63583;49.976;20.182;2024-03-06T15:05:47;3.38;97.79
75022;SHT31;63583;49.976;20.182;2024-03-06T15:08:13;3.39;97.49
75022;SHT31;63583;49.976;20.182;2024-03-06T15:10:39;3.44;97.52
75022;SHT31;63583;49.976;20.182;2024-03-06T15:13:05;3.30;97.80
75022;SHT31;63583;49.976;20.182;2024-03-06T15:15:31;3.30;97.99
75022;SHT31;63583;49.976;20.182;2024-03-06T15:17:59;3.30;98.20
75022;SHT31;63583;49.976;20.182;2024-03-06T15:20:25;3.32;98.32
75022;SHT31;63583;49.976;20.182;2024-03-06T15:22:53;3.30;98.59
75022;SHT31;63583;49.976;20.182;2024-03-06T15:25:19;3.27;98.60
75022;SHT31;63583;49.976;20.182;2024-03-06T15:27:45;3.27;98.82
75022;SHT31;63583;49.976;20.182;2024-03-06T15:30:12;3.38;98.71
75022;SHT31;63583;49.976;20.182;2024-03-06T15:32:39;3.30;98.77
75022;SHT31;63583;49.976;20.182;2024-03-06T15:35:05;3.42;98.66
75022;SHT31;63583;49.976;20.182;2024-03-06T15:37:31;3.41;98.47
75022;SHT31;63583;49.976;20.182;2024-03-06T15:39:57;3.38;98.54
75022;SHT31;63583;49.976;20.182;2024-03-06T15:42:25;3.36;98.42